createdAt,value
2023-01-17T00:00:18.563Z,9.668046
2023-01-17T00:01:18.513Z,9.668032
2023-01-17T00:02:18.640Z,9.668032
2023-01-17T00:03:18.538Z,9.668002
2023-01-17T00:04:18.503Z,9.668015
2023-01-17T00:05:18.483Z,9.667984
2023-01-17T00:06:18.494Z,9.667989
2023-01-17T00:07:18.602Z,9.667994
2023-01-17T00:08:18.477Z,9.667986
2023-01-17T00:09:18.445Z,9.667966
2023-01-17T00:10:18.438Z,9.667972
2023-01-17T00:11:18.440Z,9.668013
2023-01-17T00:12:18.495Z,9.668026
2023-01-17T00:13:18.461Z,9.668007
2023-01-17T00:14:18.417Z,9.667983
2023-01-17T00:15:18.438Z,9.667984
2023-01-17T00:16:18.532Z,9.667958
2023-01-17T00:17:18.387Z,9.667990
2023-01-17T00:18:18.400Z,9.667946
2023-01-17T00:19:18.398Z,9.667996
2023-01-17T00:20:20.153Z,9.668021
2023-01-17T00:21:19.356Z,9.667994
2023-01-17T00:22:18.377Z,9.668033
2023-01-17T00:23:18.382Z,9.667986
2023-01-17T00:24:18.349Z,9.668043
2023-01-17T00:25:18.347Z,9.668034
2023-01-17T00:26:18.352Z,9.668051
2023-01-17T00:27:18.328Z,9.667999
2023-01-17T00:28:18.377Z,9.668103
2023-01-17T00:29:18.326Z,9.668056
2023-01-17T00:30:18.304Z,9.668078
2023-01-17T00:31:18.385Z,9.668100
2023-01-17T00:32:18.300Z,9.668081
2023-01-17T00:33:18.295Z,9.668008
2023-01-17T00:34:18.277Z,9.668009
2023-01-17T00:35:18.250Z,9.668057
2023-01-17T00:36:19.235Z,9.668026
2023-01-17T00:37:18.242Z,9.667992
2023-01-17T00:38:18.278Z,9.667970
2023-01-17T00:39:18.228Z,9.668012
2023-01-17T00:40:18.207Z,9.668076
2023-01-17T00:41:18.200Z,9.668073
2023-01-17T00:42:18.195Z,9.668038
2023-01-17T00:48:16.935Z,9.667960
2023-01-17T00:49:16.917Z,9.667960
2023-01-17T00:50:16.933Z,9.667968
2023-01-17T00:51:16.925Z,9.667975
2023-01-17T00:52:16.915Z,9.667989
2023-01-17T00:53:17.429Z,9.667912
2023-01-17T00:54:18.926Z,9.668004
2023-01-17T00:55:17.913Z,9.667974
2023-01-17T00:56:16.879Z,9.667983
2023-01-17T00:57:16.840Z,9.667957
2023-01-17T00:58:16.846Z,9.668016
2023-01-17T00:59:16.865Z,9.667937
2023-01-17T01:00:16.869Z,9.667959
2023-01-17T01:01:16.973Z,9.667972
2023-01-17T01:02:16.878Z,9.667946
2023-01-17T01:03:16.797Z,9.668006
2023-01-17T01:04:16.793Z,9.668008
2023-01-17T01:05:16.794Z,9.667970
2023-01-17T01:06:16.786Z,9.667949
2023-01-17T01:07:16.803Z,9.667928
2023-01-17T01:08:16.811Z,9.667904
2023-01-17T01:09:16.780Z,9.667905
2023-01-17T01:10:16.739Z,9.667928
2023-01-17T01:11:16.741Z,9.667913
2023-01-17T01:12:16.734Z,9.667920
2023-01-17T01:13:16.753Z,9.667954
2023-01-17T01:14:16.732Z,9.667973
2023-01-17T01:15:16.708Z,9.667970
2023-01-17T01:16:16.730Z,9.667975
2023-01-17T01:17:16.747Z,9.667937
2023-01-17T01:18:16.722Z,9.667935
2023-01-17T01:19:16.956Z,9.667956
2023-01-17T01:20:16.683Z,9.667953
2023-01-17T01:21:16.670Z,9.667955
2023-01-17T01:22:48.591Z,9.667945
2023-01-17T01:23:16.655Z,9.667993
2023-01-17T01:24:16.632Z,9.667995
2023-01-17T01:25:16.639Z,9.667965
2023-01-17T01:26:16.641Z,9.667953
2023-01-17T01:27:16.655Z,9.667993
2023-01-17T01:28:16.639Z,9.667980
2023-01-17T01:29:16.631Z,9.668013
2023-01-17T01:30:16.578Z,9.668015
2023-01-17T01:31:16.634Z,9.668019
2023-01-17T01:32:16.616Z,9.668015
2023-01-17T01:33:17.569Z,9.667935
2023-01-17T01:34:16.570Z,9.667974
2023-01-17T01:35:16.564Z,9.667894
2023-01-17T01:36:16.576Z,9.667923
2023-01-17T01:37:16.576Z,9.667951
2023-01-17T01:38:16.536Z,9.667949
2023-01-17T01:39:16.576Z,9.668005
2023-01-17T01:40:16.539Z,9.667982
2023-01-17T01:41:16.515Z,9.668002
2023-01-17T01:42:16.491Z,9.667891
2023-01-17T01:43:16.520Z,9.667885
2023-01-17T01:44:16.474Z,9.667906
2023-01-17T01:45:16.515Z,9.667931
2023-01-17T01:46:16.490Z,9.667976
2023-01-17T01:47:16.472Z,9.667963
2023-01-17T01:48:16.460Z,9.667932
2023-01-17T01:49:16.448Z,9.667955
2023-01-17T01:50:16.447Z,9.667846
2023-01-17T01:51:16.464Z,9.667882
2023-01-17T01:52:16.427Z,9.667933
2023-01-17T01:53:16.409Z,9.667896
2023-01-17T01:54:16.417Z,9.667920
2023-01-17T01:55:16.402Z,9.667879
2023-01-17T01:56:16.418Z,9.667890
2023-01-17T01:57:16.403Z,9.667910
2023-01-17T01:58:16.367Z,9.667958
2023-01-17T01:59:16.365Z,9.667844
2023-01-17T02:00:16.367Z,9.667934
2023-01-17T02:01:16.470Z,9.667931
2023-01-17T02:02:16.353Z,9.667959
2023-01-17T02:03:48.329Z,9.668015
2023-01-17T02:04:16.354Z,9.667994
2023-01-17T02:05:16.337Z,9.667968
2023-01-17T02:06:16.329Z,9.667949
2023-01-17T02:07:16.355Z,9.667980
2023-01-17T02:08:16.340Z,9.668007
2023-01-17T02:09:16.330Z,9.667988
2023-01-17T02:10:17.311Z,9.667994
2023-01-17T02:11:16.291Z,9.667952
2023-01-17T02:12:16.274Z,9.668008
2023-01-17T02:13:16.295Z,9.667996
2023-01-17T02:14:48.216Z,9.667968
2023-01-17T02:15:16.258Z,9.667970
2023-01-17T02:16:16.273Z,9.667953
2023-01-17T02:17:16.224Z,9.667984
2023-01-17T02:18:16.254Z,9.667967
2023-01-17T02:19:16.690Z,9.667985
2023-01-17T02:20:16.217Z,9.667998
2023-01-17T02:21:16.206Z,9.667989
2023-01-17T02:22:16.230Z,9.667987
2023-01-17T02:23:16.173Z,9.667965
2023-01-17T02:24:16.213Z,9.668011
2023-01-17T02:25:16.176Z,9.667997
2023-01-17T02:26:16.164Z,9.667893
2023-01-17T02:27:16.180Z,9.667908
2023-01-17T02:28:17.137Z,9.667944
2023-01-17T02:29:16.180Z,9.667949
2023-01-17T02:30:16.144Z,9.667914
2023-01-17T02:31:16.156Z,9.667928
2023-01-17T02:32:48.524Z,9.668019
2023-01-17T02:33:16.083Z,9.667997
2023-01-17T02:34:17.101Z,9.667926
2023-01-17T02:35:16.114Z,9.667952
2023-01-17T02:36:16.088Z,9.667978
2023-01-17T02:37:16.485Z,9.667913
2023-01-17T02:38:16.130Z,9.667920
2023-01-17T02:39:16.054Z,9.667987
2023-01-17T02:40:16.056Z,9.667992
2023-01-17T02:41:16.061Z,9.667988
2023-01-17T02:42:16.071Z,9.667991
2023-01-17T02:43:16.098Z,9.668006
2023-01-17T02:44:16.021Z,9.668013
2023-01-17T02:45:16.025Z,9.668013
2023-01-17T02:46:16.033Z,9.668038
2023-01-17T02:47:16.038Z,9.667972
2023-01-17T02:48:16.058Z,9.667939
2023-01-17T02:49:16.045Z,9.667896
2023-01-17T02:50:16.032Z,9.667938
2023-01-17T02:51:15.969Z,9.667944
2023-01-17T02:52:15.984Z,9.667978
2023-01-17T02:53:16.037Z,9.667983
2023-01-17T02:54:15.990Z,9.668011
2023-01-17T02:55:15.955Z,9.667955
2023-01-17T02:56:15.963Z,9.667920
2023-01-17T02:57:15.927Z,9.667868
2023-01-17T02:58:16.011Z,9.667963
2023-01-17T02:59:15.949Z,9.667916
2023-01-17T03:00:15.928Z,9.668034
2023-01-17T03:01:16.013Z,9.668064
2023-01-17T03:02:15.997Z,9.668015
2023-01-17T03:03:15.958Z,9.667997
2023-01-17T03:04:15.912Z,9.668047
2023-01-17T03:05:15.868Z,9.667996
2023-01-17T03:06:15.882Z,9.667987
2023-01-17T03:07:15.861Z,9.668024
2023-01-17T03:08:15.874Z,9.668065
2023-01-17T03:09:15.919Z,9.668059
2023-01-17T03:10:15.843Z,9.668035
2023-01-17T03:11:15.844Z,9.668025
2023-01-17T03:12:15.855Z,9.668041
2023-01-17T03:13:15.824Z,9.668017
2023-01-17T03:14:15.827Z,9.668071
2023-01-17T03:15:15.820Z,9.668031
2023-01-17T03:16:15.820Z,9.668036
2023-01-17T03:17:15.850Z,9.668028
2023-01-17T03:18:15.772Z,9.668004
2023-01-17T03:19:15.786Z,9.668011
2023-01-17T03:20:15.748Z,9.667998
2023-01-17T03:21:15.752Z,9.667997
2023-01-17T03:22:15.749Z,9.667983
2023-01-17T03:23:15.735Z,9.668000
2023-01-17T03:24:15.736Z,9.668023
2023-01-17T03:25:15.722Z,9.667995
2023-01-17T03:26:15.746Z,9.668014
2023-01-17T03:27:15.691Z,9.668027
2023-01-17T03:28:15.701Z,9.668034
2023-01-17T03:29:15.701Z,9.668024
2023-01-17T03:30:15.700Z,9.668030
2023-01-17T03:31:15.715Z,9.668032
2023-01-17T03:32:15.670Z,9.668044
2023-01-17T03:33:15.688Z,9.668010
2023-01-17T03:34:15.647Z,9.667985
2023-01-17T03:35:15.641Z,9.668011
2023-01-17T03:36:15.632Z,9.668026
2023-01-17T03:37:15.660Z,9.668021
2023-01-17T03:38:15.643Z,9.667997
2023-01-17T03:39:15.611Z,9.668008
2023-01-17T03:40:15.632Z,9.668048
2023-01-17T03:41:47.989Z,9.668007
2023-01-17T03:42:16.480Z,9.668045
2023-01-17T03:43:15.577Z,9.668028
2023-01-17T03:44:15.559Z,9.668013
2023-01-17T03:45:15.556Z,9.668008
2023-01-17T03:46:15.578Z,9.668028
2023-01-17T03:47:15.553Z,9.667988
2023-01-17T04:06:07.100Z,9.668089
2023-01-17T04:07:06.968Z,9.668097
2023-01-17T04:08:07.031Z,9.667960
2023-01-17T04:09:07.067Z,9.667910
2023-01-17T04:10:07.022Z,9.667981
2023-01-17T04:11:06.954Z,9.668004
2023-01-17T04:12:06.966Z,9.667927
2023-01-17T04:13:06.922Z,9.668037
2023-01-17T04:14:06.927Z,9.668044
2023-01-17T04:15:06.947Z,9.668013
2023-01-17T04:16:06.893Z,9.667991
2023-01-17T04:17:06.888Z,9.667984
2023-01-17T04:18:06.915Z,9.668004
2023-01-17T04:19:06.886Z,9.667981
2023-01-17T04:20:06.977Z,9.667990
2023-01-17T04:21:06.889Z,9.667959
2023-01-17T04:22:06.891Z,9.667996
2023-01-17T04:23:06.896Z,9.668008
2023-01-17T04:24:06.864Z,9.667982
2023-01-17T04:25:06.842Z,9.668009
2023-01-17T04:26:06.850Z,9.668081
2023-01-17T04:27:06.828Z,9.668058
2023-01-17T04:28:06.800Z,9.668040
2023-01-17T04:29:06.807Z,9.668056
2023-01-17T04:30:06.810Z,9.668047
2023-01-17T04:31:06.906Z,9.668124
2023-01-17T04:32:06.771Z,9.668073
2023-01-17T04:33:06.788Z,9.668036
2023-01-17T04:34:06.777Z,9.668030
2023-01-17T04:35:06.769Z,9.667988
2023-01-17T04:36:06.765Z,9.668079
2023-01-17T04:37:06.760Z,9.668036
2023-01-17T04:38:06.788Z,9.668004
2023-01-17T04:39:06.741Z,9.668011
2023-01-17T04:40:06.813Z,9.668102
2023-01-17T04:41:06.766Z,9.668087
2023-01-17T04:42:06.773Z,9.668025
2023-01-17T04:43:06.708Z,9.668036
2023-01-17T04:44:06.713Z,9.668011
2023-01-17T04:45:06.684Z,9.667973
2023-01-17T04:46:06.691Z,9.667994
2023-01-17T04:47:06.687Z,9.668011
2023-01-17T04:48:06.659Z,9.667996
2023-01-17T04:49:06.688Z,9.668092
2023-01-17T04:50:06.658Z,9.668068
2023-01-17T04:51:06.629Z,9.668094
2023-01-17T04:52:07.731Z,9.668072
2023-01-17T04:53:06.646Z,9.668110
2023-01-17T04:54:06.615Z,9.668068
2023-01-17T04:55:06.691Z,9.668036
2023-01-17T04:56:06.606Z,9.667994
2023-01-17T04:57:06.594Z,9.668036
2023-01-17T04:58:06.606Z,9.668095
2023-01-17T04:59:06.628Z,9.668051
2023-01-17T05:00:06.602Z,9.668011
2023-01-17T05:01:06.701Z,9.668051
2023-01-17T05:02:06.597Z,9.668075
2023-01-17T05:03:06.552Z,9.668043
2023-01-17T05:04:06.550Z,9.668030
2023-01-17T05:05:06.530Z,9.668096
2023-01-17T05:06:07.532Z,9.668056
2023-01-17T05:07:06.520Z,9.668044
2023-01-17T05:08:06.521Z,9.668158
2023-01-17T05:09:06.554Z,9.668075
2023-01-17T05:10:06.515Z,9.668031
2023-01-17T05:11:06.491Z,9.668096
2023-01-17T05:12:06.483Z,9.668090
2023-01-17T05:13:06.472Z,9.668132
2023-01-17T05:14:06.491Z,9.668052
2023-01-17T05:15:06.452Z,9.668061
2023-01-17T05:16:06.554Z,9.668030
2023-01-17T05:17:06.436Z,9.668044
2023-01-17T05:18:06.420Z,9.668037
2023-01-17T05:19:06.437Z,9.668071
2023-01-17T05:20:06.454Z,9.668069
2023-01-17T05:21:06.429Z,9.668088
2023-01-17T05:22:06.387Z,9.668064
2023-01-17T05:23:06.421Z,9.668042
2023-01-17T05:24:06.418Z,9.668109
2023-01-17T05:25:06.377Z,9.668045
2023-01-17T05:26:06.388Z,9.668016
2023-01-17T05:27:38.286Z,9.668032
2023-01-17T05:28:06.391Z,9.668066
2023-01-17T05:29:06.359Z,9.668040
2023-01-17T05:30:06.347Z,9.668085
2023-01-17T05:31:06.403Z,9.668071
2023-01-17T05:32:39.234Z,9.668067
2023-01-17T05:33:38.726Z,9.668036
2023-01-17T05:34:06.320Z,9.668049
2023-01-17T05:35:06.327Z,9.668037
2023-01-17T05:36:06.442Z,9.668032
2023-01-17T05:37:06.309Z,9.668041
2023-01-17T05:38:06.293Z,9.668046
2023-01-17T05:39:06.322Z,9.668048
2023-01-17T05:40:06.280Z,9.668052
2023-01-17T05:41:06.292Z,9.668066
2023-01-17T05:42:06.291Z,9.668035
2023-01-17T05:43:06.300Z,9.668053
2023-01-17T05:44:06.284Z,9.668082
2023-01-17T05:45:06.249Z,9.668070
2023-01-17T05:46:06.261Z,9.668065
2023-01-17T05:47:06.262Z,9.668072
2023-01-17T05:48:06.243Z,9.668088
2023-01-17T05:49:06.286Z,9.668069
2023-01-17T05:50:06.209Z,9.668071
2023-01-17T05:51:06.177Z,9.668078
2023-01-17T05:52:06.201Z,9.668061
2023-01-17T05:53:06.183Z,9.668073
2023-01-17T05:54:06.191Z,9.668075
2023-01-17T05:55:06.187Z,9.668081
2023-01-17T05:56:06.179Z,9.668073
2023-01-17T05:57:06.143Z,9.668129
2023-01-17T05:58:06.147Z,9.668085
2023-01-17T05:59:06.136Z,9.668139
2023-01-17T06:00:06.120Z,9.668097
2023-01-17T06:01:06.148Z,9.668074
2023-01-17T06:02:06.268Z,9.668115
2023-01-17T06:03:06.102Z,9.668094
2023-01-17T06:04:07.086Z,9.668108
2023-01-17T06:05:38.029Z,9.668087
2023-01-17T06:06:06.081Z,9.668101
2023-01-17T06:07:38.153Z,9.668125
2023-01-17T06:08:37.999Z,9.668086
2023-01-17T06:09:06.049Z,9.668075
2023-01-17T06:10:38.032Z,9.668079
2023-01-17T06:11:06.033Z,9.668081
2023-01-17T06:12:37.959Z,9.668084
2023-01-17T06:13:06.051Z,9.668102
2023-01-17T06:14:06.013Z,9.668062
2023-01-17T06:15:06.005Z,9.668071
2023-01-17T06:16:37.909Z,9.668045
2023-01-17T06:17:38.404Z,9.668074
2023-01-17T06:18:37.926Z,9.668080
2023-01-17T06:19:06.018Z,9.668084
2023-01-17T06:20:37.884Z,9.668077
2023-01-17T06:29:04.725Z,9.667821
2023-01-17T06:30:04.757Z,9.667966
2023-01-17T06:31:04.684Z,9.667994
2023-01-17T06:32:04.648Z,9.667995
2023-01-17T06:33:04.662Z,9.668016
2023-01-17T06:34:04.645Z,9.668023
2023-01-17T06:35:04.627Z,9.668013
2023-01-17T06:36:04.604Z,9.668039
2023-01-17T06:37:04.622Z,9.668002
2023-01-17T06:38:04.662Z,9.667948
2023-01-17T06:39:04.600Z,9.668022
2023-01-17T06:40:04.680Z,9.668073
2023-01-17T06:41:04.572Z,9.668066
2023-01-17T06:42:04.567Z,9.668077
2023-01-17T06:43:04.567Z,9.668102
2023-01-17T06:44:04.555Z,9.668064
2023-01-17T06:45:04.559Z,9.668081
2023-01-17T06:46:04.588Z,9.667935
2023-01-17T06:47:04.539Z,9.667933
2023-01-17T06:48:04.536Z,9.667957
2023-01-17T06:49:04.512Z,9.667974
2023-01-17T06:50:04.505Z,9.668059
2023-01-17T06:51:04.583Z,9.668038
2023-01-17T06:52:04.517Z,9.668012
2023-01-17T06:53:04.513Z,9.668022
2023-01-17T06:54:04.504Z,9.668061
2023-01-17T06:55:04.472Z,9.668095
2023-01-17T06:56:04.524Z,9.668048
2023-01-17T06:57:04.471Z,9.668041
2023-01-17T06:58:04.453Z,9.668097
2023-01-17T06:59:04.435Z,9.668072
2023-01-17T07:00:04.449Z,9.668060
2023-01-17T07:01:04.592Z,9.668038
2023-01-17T07:02:04.416Z,9.668000
2023-01-17T07:03:04.403Z,9.668035
2023-01-17T07:04:04.490Z,9.668029
2023-01-17T07:05:04.439Z,9.668009
2023-01-17T07:06:04.434Z,9.668014
2023-01-17T07:07:04.438Z,9.668040
2023-01-17T07:08:04.483Z,9.667996
2023-01-17T07:09:04.399Z,9.668041
2023-01-17T07:10:04.359Z,9.668021
2023-01-17T07:11:04.343Z,9.668024
2023-01-17T07:12:04.394Z,9.668010
2023-01-17T07:13:05.335Z,9.667999
2023-01-17T07:14:04.374Z,9.668087
2023-01-17T07:15:04.347Z,9.668025
2023-01-17T07:16:04.346Z,9.668064
2023-01-17T07:17:04.312Z,9.668005
2023-01-17T07:18:04.304Z,9.668004
2023-01-17T07:19:04.289Z,9.667969
2023-01-17T07:20:04.336Z,9.667989
2023-01-17T07:21:04.330Z,9.668033
2023-01-17T07:22:04.271Z,9.667922
2023-01-17T07:23:04.268Z,9.667980
2023-01-17T07:24:04.278Z,9.668031
2023-01-17T07:25:04.260Z,9.668029
2023-01-17T07:26:04.236Z,9.667993
2023-01-17T07:27:04.241Z,9.667990
2023-01-17T07:28:04.244Z,9.668010
2023-01-17T07:29:04.243Z,9.668054
2023-01-17T07:30:04.281Z,9.668116
2023-01-17T07:31:04.262Z,9.668058
2023-01-17T07:32:04.212Z,9.668057
2023-01-17T07:33:04.186Z,9.668017
2023-01-17T07:34:04.178Z,9.668050
2023-01-17T07:35:04.182Z,9.668051
2023-01-17T07:36:04.163Z,9.668038
2023-01-17T07:37:04.161Z,9.668060
2023-01-17T07:38:04.141Z,9.668061
2023-01-17T07:39:06.202Z,9.668024
2023-01-17T07:40:05.160Z,9.667993
2023-01-17T07:41:04.148Z,9.667952
2023-01-17T07:42:04.105Z,9.667995
2023-01-17T07:43:04.135Z,9.667977
2023-01-17T07:44:04.128Z,9.668006
2023-01-17T07:45:04.153Z,9.667986
2023-01-17T07:46:04.123Z,9.667923
2023-01-17T07:47:04.079Z,9.668020
2023-01-17T07:48:04.082Z,9.667904
2023-01-17T07:49:04.072Z,9.667908
2023-01-17T07:50:04.096Z,9.667963
2023-01-17T07:51:04.042Z,9.667984
2023-01-17T07:52:04.050Z,9.667955
2023-01-17T07:53:04.063Z,9.667992
2023-01-17T07:54:04.023Z,9.668032
2023-01-17T07:55:04.094Z,9.668013
2023-01-17T07:56:04.886Z,9.667939
2023-01-17T07:57:03.996Z,9.667972
2023-01-17T07:58:03.989Z,9.668003
2023-01-17T07:59:03.973Z,9.667984
2023-01-17T08:00:04.015Z,9.668006
2023-01-17T08:01:04.126Z,9.668013
2023-01-17T08:02:04.000Z,9.667984
2023-01-17T08:03:03.963Z,9.667975
2023-01-17T08:04:03.944Z,9.667946
2023-01-17T08:05:04.023Z,9.667921
2023-01-17T08:06:03.949Z,9.667940
2023-01-17T08:07:03.931Z,9.667831
2023-01-17T08:08:03.985Z,9.667852
2023-01-17T08:09:03.904Z,9.667791
2023-01-17T08:10:03.913Z,9.667707
2023-01-17T08:11:03.948Z,9.667728
2023-01-17T08:12:03.977Z,9.667719
2023-01-17T08:13:03.886Z,9.667722
2023-01-17T08:14:03.863Z,9.667689
2023-01-17T08:15:03.867Z,9.667792
2023-01-17T08:16:03.966Z,9.667759
2023-01-17T08:17:03.864Z,9.667771
2023-01-17T08:18:03.837Z,9.667816
2023-01-17T08:19:03.831Z,9.667904
2023-01-17T08:20:03.810Z,9.667975
2023-01-17T08:21:03.829Z,9.667921
2023-01-17T08:22:03.808Z,9.667967
2023-01-17T08:23:03.778Z,9.667951
2023-01-17T08:24:04.791Z,9.667935
2023-01-17T08:25:03.766Z,9.667892
2023-01-17T08:26:03.783Z,9.667930
2023-01-17T08:27:03.789Z,9.667963
2023-01-17T08:28:03.758Z,9.667941
2023-01-17T08:29:35.667Z,9.667940
2023-01-17T08:30:35.646Z,9.667962
2023-01-17T08:31:03.734Z,9.667969
2023-01-17T08:32:36.696Z,9.668020
2023-01-17T08:33:03.718Z,9.667972
2023-01-17T08:34:04.478Z,9.667949
2023-01-17T08:35:03.722Z,9.667958
2023-01-17T08:36:03.733Z,9.667949
2023-01-17T08:37:03.690Z,9.667960
2023-01-17T08:38:03.738Z,9.667955
2023-01-17T08:39:03.683Z,9.667941
2023-01-17T08:40:03.652Z,9.667938
2023-01-17T08:41:03.689Z,9.667963
2023-01-17T08:42:03.647Z,9.667965
2023-01-17T08:43:03.781Z,9.667971
2023-01-17T08:44:03.635Z,9.667971
2023-01-17T08:45:03.627Z,9.667986
2023-01-17T08:46:03.647Z,9.667992
2023-01-17T08:47:03.617Z,9.667948
2023-01-17T08:48:03.606Z,9.667917
2023-01-17T08:49:03.643Z,9.667962
2023-01-17T08:50:03.583Z,9.667959
2023-01-17T08:51:03.626Z,9.667963
2023-01-17T08:52:04.457Z,9.667953
2023-01-17T08:53:03.555Z,9.667920
2023-01-17T08:54:03.593Z,9.667935
2023-01-17T08:55:03.551Z,9.667957
2023-01-17T08:56:03.532Z,9.667922
2023-01-17T08:57:03.542Z,9.667949
2023-01-17T08:58:03.517Z,9.667965
2023-01-17T08:59:03.540Z,9.667974
2023-01-17T09:00:03.524Z,9.667982
2023-01-17T09:01:03.588Z,9.667992
2023-01-17T09:02:03.570Z,9.667952
2023-01-17T09:03:03.494Z,9.667962
2023-01-17T09:04:03.506Z,9.667911
2023-01-17T09:05:03.486Z,9.667943
2023-01-17T09:06:03.462Z,9.667944
2023-01-17T09:07:03.452Z,9.667941
2023-01-17T09:08:03.437Z,9.667933
2023-01-17T09:09:03.440Z,9.667945
2023-01-17T09:10:03.490Z,9.667974
2023-01-17T09:11:03.441Z,9.667953
2023-01-17T09:12:03.417Z,9.667951
2023-01-17T09:13:03.397Z,9.667956
2023-01-17T09:14:03.394Z,9.667953
2023-01-17T09:15:03.386Z,9.667950
2023-01-17T09:16:03.414Z,9.667907
2023-01-17T09:17:03.409Z,9.667953
2023-01-17T09:18:03.380Z,9.667953
2023-01-17T09:19:03.350Z,9.667913
2023-01-17T09:20:03.377Z,9.667926
2023-01-17T09:21:03.346Z,9.667969
2023-01-17T09:22:03.329Z,9.667958
2023-01-17T09:23:03.334Z,9.667933
2023-01-17T09:24:03.333Z,9.667960
2023-01-17T09:25:03.306Z,9.667969
2023-01-17T09:26:03.302Z,9.667933
2023-01-17T09:27:03.302Z,9.667976
2023-01-17T09:28:03.300Z,9.667976
2023-01-17T09:29:03.308Z,9.667949
2023-01-17T09:30:03.263Z,9.667993
2023-01-17T09:31:03.294Z,9.667954
2023-01-17T09:32:03.251Z,9.667998
2023-01-17T09:33:03.289Z,9.667989
2023-01-17T09:34:03.250Z,9.667937
2023-01-17T09:35:03.245Z,9.667973
2023-01-17T09:36:03.222Z,9.667989
2023-01-17T09:37:03.229Z,9.667985
2023-01-17T09:38:03.526Z,9.668018
2023-01-17T09:39:03.192Z,9.668022
2023-01-17T09:40:03.206Z,9.668002
2023-01-17T09:41:03.211Z,9.667961
2023-01-17T09:42:03.185Z,9.667953
2023-01-17T09:43:03.201Z,9.667976
2023-01-17T09:44:03.209Z,9.667987
2023-01-17T09:45:04.134Z,9.667999
2023-01-17T09:46:03.173Z,9.667980
2023-01-17T09:47:03.167Z,9.667974
2023-01-17T09:48:03.120Z,9.667949
2023-01-17T09:49:03.120Z,9.667926
2023-01-17T09:50:03.137Z,9.667952
2023-01-17T09:51:03.097Z,9.667961
2023-01-17T09:52:03.162Z,9.667957
2023-01-17T09:53:03.096Z,9.667924
2023-01-17T09:54:03.092Z,9.667932
2023-01-17T09:55:03.129Z,9.667919
2023-01-17T09:56:03.063Z,9.667907
2023-01-17T09:57:03.062Z,9.667996
2023-01-17T09:58:03.060Z,9.667910
2023-01-17T09:59:03.078Z,9.667941
2023-01-17T10:00:04.083Z,9.667944
2023-01-17T10:01:04.242Z,9.667946
2023-01-17T10:02:03.201Z,9.667947
2023-01-17T10:03:03.171Z,9.667929
2023-01-17T10:04:03.043Z,9.667922
2023-01-17T10:05:03.161Z,9.667914
2023-01-17T10:06:03.010Z,9.667946
2023-01-17T10:07:03.047Z,9.667952
2023-01-17T10:08:04.620Z,9.667921
2023-01-17T10:09:03.981Z,9.667961
2023-01-17T10:10:03.051Z,9.667949
2023-01-17T10:11:03.019Z,9.667979
2023-01-17T10:12:02.981Z,9.667976
2023-01-17T10:13:02.941Z,9.667988
2023-01-17T10:14:02.989Z,9.667948
2023-01-17T10:15:02.930Z,9.667963
2023-01-17T10:16:02.975Z,9.667935
2023-01-17T10:17:02.966Z,9.667968
2023-01-17T10:18:02.913Z,9.667966
2023-01-17T10:19:02.895Z,9.667953
2023-01-17T10:20:02.919Z,9.667957
2023-01-17T10:21:02.922Z,9.667965
2023-01-17T10:22:02.900Z,9.667996
2023-01-17T10:23:02.864Z,9.668013
2023-01-17T10:24:02.904Z,9.668024
2023-01-17T10:25:02.866Z,9.668015
2023-01-17T10:26:02.829Z,9.668014
2023-01-17T10:27:02.844Z,9.668022
2023-01-17T10:28:02.847Z,9.667975
2023-01-17T10:29:02.811Z,9.667993
2023-01-17T10:30:02.824Z,9.667986
2023-01-17T10:31:02.857Z,9.668010
2023-01-17T10:32:02.800Z,9.668034
2023-01-17T10:33:02.882Z,9.668045
2023-01-17T10:34:02.807Z,9.668036
2023-01-17T10:35:02.838Z,9.668018
2023-01-17T10:36:34.699Z,9.668031
2023-01-17T10:37:02.901Z,9.668033
2023-01-17T10:38:02.787Z,9.668043
2023-01-17T10:39:02.759Z,9.668003
2023-01-17T10:40:02.754Z,9.668008
2023-01-17T10:41:02.732Z,9.668028
2023-01-17T10:42:02.739Z,9.667994
2023-01-17T10:43:02.705Z,9.668014
2023-01-17T10:44:02.740Z,9.668068
2023-01-17T10:45:02.707Z,9.668065
2023-01-17T10:46:02.728Z,9.668077
2023-01-17T10:47:02.747Z,9.668032
2023-01-17T10:48:02.674Z,9.667999
2023-01-17T10:49:02.706Z,9.667999
2023-01-17T10:50:02.644Z,9.667976
2023-01-17T10:51:02.649Z,9.667995
2023-01-17T10:52:02.677Z,9.668015
2023-01-17T10:53:02.674Z,9.668044
2023-01-17T10:54:02.652Z,9.668011
2023-01-17T10:55:02.601Z,9.668053
2023-01-17T10:56:02.629Z,9.668036
2023-01-17T10:57:02.590Z,9.668033
2023-01-17T10:58:02.633Z,9.668020
2023-01-17T10:59:02.627Z,9.667974
2023-01-17T11:00:02.579Z,9.668033
2023-01-17T11:01:02.668Z,9.668032
2023-01-17T11:02:02.673Z,9.667954
2023-01-17T11:03:02.631Z,9.668025
2023-01-17T11:04:02.564Z,9.668000
2023-01-17T11:05:02.550Z,9.668002
2023-01-17T11:06:02.532Z,9.667925
2023-01-17T11:07:02.551Z,9.668061
2023-01-17T11:08:02.537Z,9.668058
2023-01-17T11:09:02.505Z,9.667999
2023-01-17T11:10:02.539Z,9.668019
2023-01-17T11:11:02.520Z,9.668016
2023-01-17T11:12:02.476Z,9.668020
2023-01-17T11:13:02.473Z,9.668047
2023-01-17T11:14:02.489Z,9.668004
2023-01-17T11:15:02.527Z,9.667985
2023-01-17T11:16:02.578Z,9.667968
2023-01-17T11:17:02.477Z,9.668009
2023-01-17T11:18:02.442Z,9.668012
2023-01-17T11:19:02.415Z,9.668016
2023-01-17T11:20:02.432Z,9.668017
2023-01-17T11:21:02.408Z,9.668012
2023-01-17T11:22:02.400Z,9.668053
2023-01-17T11:23:02.418Z,9.668048
2023-01-17T11:24:02.393Z,9.668001
2023-01-17T11:25:02.399Z,9.667995
2023-01-17T11:26:02.387Z,9.667974
2023-01-17T11:27:02.381Z,9.667982
2023-01-17T11:28:02.368Z,9.667976
2023-01-17T11:29:02.351Z,9.667981
2023-01-17T11:30:02.372Z,9.667990
2023-01-17T11:31:02.366Z,9.667939
2023-01-17T11:32:02.352Z,9.667961
2023-01-17T11:33:02.339Z,9.667949
2023-01-17T11:34:02.420Z,9.667913
2023-01-17T11:35:02.348Z,9.667933
2023-01-17T11:36:02.365Z,9.667975
2023-01-17T11:37:02.286Z,9.667971
2023-01-17T11:38:02.283Z,9.667966
2023-01-17T11:39:02.295Z,9.667957
2023-01-17T11:40:02.268Z,9.667938
2023-01-17T11:41:02.275Z,9.667964
2023-01-17T11:42:02.246Z,9.667969
2023-01-17T11:43:02.277Z,9.667965
2023-01-17T11:44:02.274Z,9.667962
2023-01-17T11:45:02.322Z,9.667954
2023-01-17T11:46:02.259Z,9.667974
2023-01-17T11:47:02.215Z,9.667965
2023-01-17T11:48:02.219Z,9.667942
2023-01-17T11:49:02.257Z,9.667969
2023-01-17T11:50:02.233Z,9.667973
2023-01-17T11:51:02.229Z,9.667969
2023-01-17T11:52:02.188Z,9.667955
2023-01-17T11:53:02.168Z,9.667950
2023-01-17T11:54:02.168Z,9.667961
2023-01-17T11:55:02.234Z,9.667962
2023-01-17T11:56:02.164Z,9.667927
2023-01-17T11:57:02.131Z,9.667976
2023-01-17T11:58:02.124Z,9.667971
2023-01-17T11:59:02.134Z,9.667921
2023-01-17T12:00:02.153Z,9.667924
2023-01-17T12:01:02.213Z,9.667915
2023-01-17T12:02:02.140Z,9.667948
2023-01-17T12:03:02.104Z,9.667928
2023-01-17T12:04:02.194Z,9.667934
2023-01-17T12:05:02.249Z,9.667929
2023-01-17T12:06:02.078Z,9.667927
2023-01-17T12:07:02.076Z,9.667914
2023-01-17T12:08:02.054Z,9.667896
2023-01-17T12:09:02.086Z,9.667888
2023-01-17T12:10:02.073Z,9.667945
2023-01-17T12:11:02.036Z,9.667924
2023-01-17T12:12:03.225Z,9.667930
2023-01-17T12:13:02.039Z,9.667934
2023-01-17T12:14:02.033Z,9.667946
2023-01-17T12:15:02.002Z,9.667918